DAOB

Bou Chekif Airport

Tiaret, Algeria
METAR DAOB 221000Z 30007KT 9999 FEW023 17/06 Q1018
Observed Flight Rules
May-22 @ 10:00 UTC (17 minutes ago) Visual Flight Rules
Wind Visibility Clouds
300° at 7 knots 10,000+ meters
  • Few at 2,300' AGL
Temperatures Readings
Current 17°C / 63°F
Dewpoint 6°C / 43°F
Humidity 49%
Altimeter 30.06" Hg
Pressure 1018 hPa
Elevation 989
METAR DAOB 221000Z 30007KT 9999 FEW023 17/06 Q1018
Observed Flight Rules
May-22 @ 10:00 UTC
(17 minutes ago)
VFR
Wind Visibility
300° at 7 knots 10,000+ meters
Clouds
  • Few at 2,300' AGL
Temperature Dewpoint
17°C / 63°F 6°C / 43°F
Humidity Altimeter Pressure
49% 30.06" Hg 1018 hPa